Terminal Aerodrome Forecast
Issued by NWS

Current Version | Previous Version | Text Only | Print | Product List | Glossary Off
Versions: 1 2 3 4 5 6 7 8 9 10 11 12 13 14 15 16 17 18 19

000
FTUS41 KPBZ 131100
TAFMGW
TAF
KMGW 131120Z 1312/1412 16009KT P6SM SCT070 BKN250
     FM131500 21015G25KT P6SM SCT050 BKN250
     FM132300 18007KT P6SM SCT050 BKN250=

USA.gov is the U.S. government's official web portal to all federal, state and local government web resources and services.